Time;durP1;ratioP1;P1;durP2;ratioP2;P2;SDS_P1;SDS_P2;PMS_P1;PMS_P2;Temp;Humidity;BMP_temperature;BMP_pressure;BME280_temperature;BME280_humidity;BME280_pressure;Samples;Min_cycle;Max_cycle;Signal;HPM_P1;HPM_P2
2024/03/29 00:01:38;;;;;;;15.52;1.90;;;30.20;30.00;;;;;;4985256;28;20723;-54
2024/03/29 00:04:04;;;;;;;8.27;2.28;;;30.50;29.30;;;;;;5001645;28;20216;-51
2024/03/29 00:06:31;;;;;;;8.65;2.10;;;30.90;29.50;;;;;;4985060;28;20070;-55
2024/03/29 00:08:58;;;;;;;5.97;1.70;;;30.80;29.30;;;;;;5006123;28;20087;-52
2024/03/29 00:11:24;;;;;;;5.80;1.67;;;30.80;29.00;;;;;;5006032;28;20077;-54
2024/03/29 00:13:51;;;;;;;11.95;1.80;;;30.50;28.80;;;;;;4986088;28;20122;-47
2024/03/29 00:16:17;;;;;;;6.50;2.00;;;30.50;29.10;;;;;;5004622;28;20063;-49
2024/03/29 00:18:44;;;;;;;11.93;2.30;;;30.50;28.80;;;;;;5004849;28;20547;-51
2024/03/29 00:21:10;;;;;;;7.45;1.58;;;30.40;29.30;;;;;;4985709;28;20110;-48
2024/03/29 00:23:37;;;;;;;8.80;2.08;;;30.40;29.50;;;;;;5004738;28;20078;-52
2024/03/29 00:26:03;;;;;;;14.00;1.95;;;30.40;29.70;;;;;;5002711;28;20089;-51
2024/03/29 00:28:30;;;;;;;12.25;2.20;;;30.20;29.70;;;;;;4987858;28;20160;-53
2024/03/29 00:30:57;;;;;;;11.20;2.38;;;30.10;30.00;;;;;;4984560;28;20077;-50
2024/03/29 00:33:24;;;;;;;11.43;2.22;;;30.10;29.80;;;;;;5004596;28;21149;-53
2024/03/29 00:35:50;;;;;;;8.70;2.20;;;29.80;30.00;;;;;;5005048;28;21448;-51
2024/03/29 00:38:17;;;;;;;12.57;2.58;;;29.80;29.90;;;;;;5001361;28;20077;-51
2024/03/29 00:40:43;;;;;;;14.10;4.03;;;29.80;30.20;;;;;;5002910;28;20106;-54
2024/03/29 00:43:10;;;;;;;13.15;2.17;;;29.80;31.20;;;;;;5005143;28;20116;-52
2024/03/29 00:45:36;;;;;;;11.65;2.47;;;29.90;30.70;;;;;;5005941;28;20092;-57
2024/03/29 00:48:03;;;;;;;8.10;2.03;;;29.70;30.80;;;;;;5004517;28;20229;-54
2024/03/29 00:50:29;;;;;;;13.10;2.25;;;29.60;30.40;;;;;;5002811;28;20074;-60
2024/03/29 00:52:56;;;;;;;17.30;2.40;;;29.60;30.90;;;;;;5005547;28;20427;-51
2024/03/29 00:55:22;;;;;;;17.25;2.97;;;29.50;31.70;;;;;;5005106;28;20081;-52
2024/03/29 00:57:49;;;;;;;12.85;2.47;;;29.40;32.20;;;;;;5006419;28;20077;-50
2024/03/29 01:00:15;;;;;;;13.23;3.08;;;29.30;33.00;;;;;;5004725;28;20137;-58
2024/03/29 01:02:42;;;;;;;18.92;2.80;;;29.20;34.40;;;;;;4986616;28;20571;-50
2024/03/29 01:05:08;;;;;;;14.20;2.97;;;29.00;34.60;;;;;;4983458;28;20090;-51
2024/03/29 01:07:35;;;;;;;12.00;2.58;;;28.80;34.60;;;;;;5003735;28;20075;-56
2024/03/29 01:10:02;;;;;;;14.82;2.78;;;28.70;34.80;;;;;;5003532;28;20093;-54
2024/03/29 01:12:28;;;;;;;13.18;2.63;;;28.60;35.40;;;;;;5005550;28;20120;-54
2024/03/29 01:14:55;;;;;;;13.00;2.38;;;28.50;34.80;;;;;;4986215;28;20081;-52
2024/03/29 01:17:21;;;;;;;14.15;2.28;;;28.50;33.80;;;;;;5003443;28;20160;-51
2024/03/29 01:19:48;;;;;;;6.70;2.10;;;28.40;32.00;;;;;;5004456;28;20558;-52
2024/03/29 01:22:14;;;;;;;8.00;2.38;;;28.30;33.50;;;;;;5003268;28;20074;-52
2024/03/29 01:24:40;;;;;;;23.63;3.67;;;28.20;35.00;;;;;;5005069;28;20469;-57
2024/03/29 01:27:07;;;;;;;26.92;3.22;;;28.10;37.20;;;;;;5006445;28;20074;-49
2024/03/29 01:29:33;;;;;;;20.40;3.30;;;27.90;37.50;;;;;;5003941;28;20501;-52
2024/03/29 01:32:00;;;;;;;16.98;3.45;;;27.70;37.90;;;;;;5004711;28;20636;-50
2024/03/29 01:34:26;;;;;;;15.05;3.03;;;27.50;38.30;;;;;;5002258;28;20074;-51
2024/03/29 01:36:53;;;;;;;21.80;3.22;;;27.40;38.60;;;;;;5002442;28;20546;-50
2024/03/29 01:39:21;;;;;;;18.23;2.95;;;27.30;38.80;;;;;;5003977;28;20118;-47
2024/03/29 01:41:47;;;;;;;9.77;2.70;;;27.30;36.20;;;;;;5003903;28;20161;-54
2024/03/29 01:44:14;;;;;;;16.67;3.33;;;27.10;35.20;;;;;;5002410;28;20698;-44
2024/03/29 01:46:40;;;;;;;18.70;3.05;;;27.00;34.60;;;;;;5003317;28;20517;-46
2024/03/29 01:49:09;;;;;;;13.93;2.88;;;26.90;34.90;;;;;;5003556;28;20070;-51
2024/03/29 01:51:39;;;;;;;12.93;3.47;;;26.80;34.70;;;;;;4983640;28;20102;-48
2024/03/29 01:54:09;;;;;;;16.38;2.88;;;26.60;34.50;;;;;;4989158;28;20087;-48
2024/03/29 01:56:37;;;;;;;13.27;3.40;;;26.50;34.70;;;;;;5002217;28;20554;-48
2024/03/29 01:59:05;;;;;;;18.08;3.60;;;26.50;34.50;;;;;;5005024;28;20074;-46
2024/03/29 02:01:31;;;;;;;13.55;3.13;;;26.40;34.50;;;;;;5002919;28;20071;-48
2024/03/29 02:03:58;;;;;;;28.95;3.72;;;26.30;34.40;;;;;;4998998;28;20082;-46
2024/03/29 02:06:24;;;;;;;14.48;3.30;;;26.20;34.30;;;;;;5004948;28;20447;-51
2024/03/29 02:08:53;;;;;;;13.73;2.72;;;26.10;34.30;;;;;;5001727;28;20088;-56
2024/03/29 02:11:20;;;;;;;14.25;2.67;;;26.10;34.30;;;;;;4984032;28;20535;-55
2024/03/29 02:13:48;;;;;;;13.32;3.47;;;26.00;34.40;;;;;;5003350;28;20531;-52
2024/03/29 02:16:14;;;;;;;11.25;3.55;;;25.90;34.00;;;;;;5003618;28;20063;-50
2024/03/29 02:18:41;;;;;;;12.45;2.80;;;25.80;34.20;;;;;;5006940;28;20090;-55
2024/03/29 02:21:08;;;;;;;12.85;2.75;;;25.70;34.30;;;;;;5006693;28;20184;-51
2024/03/29 02:23:37;;;;;;;16.10;3.42;;;25.60;34.30;;;;;;5006893;28;20093;-46
2024/03/29 02:26:04;;;;;;;25.98;3.40;;;25.50;34.50;;;;;;5008089;28;20087;-47
2024/03/29 02:28:31;;;;;;;15.85;3.30;;;25.40;34.30;;;;;;5006716;28;20067;-47
2024/03/29 02:30:58;;;;;;;10.38;2.70;;;25.40;33.90;;;;;;5007366;28;20082;-46
2024/03/29 02:33:24;;;;;;;13.50;2.72;;;25.30;33.40;;;;;;5006647;28;20081;-49
2024/03/29 02:35:51;;;;;;;13.85;2.38;;;25.20;33.30;;;;;;5006641;28;20085;-48
2024/03/29 02:38:17;;;;;;;13.68;2.53;;;25.20;33.30;;;;;;5004909;28;20071;-47
2024/03/29 02:40:44;;;;;;;19.45;2.53;;;25.10;33.40;;;;;;5007877;28;20110;-46
2024/03/29 02:43:11;;;;;;;13.02;2.25;;;25.00;34.20;;;;;;5009219;28;20129;-45
2024/03/29 02:45:38;;;;;;;12.27;2.72;;;24.90;35.40;;;;;;5008408;28;20158;-49
2024/03/29 02:48:05;;;;;;;9.93;2.75;;;24.90;36.50;;;;;;5008398;28;20070;-45
2024/03/29 02:50:32;;;;;;;15.25;2.90;;;24.80;37.20;;;;;;5008661;28;20082;-45
2024/03/29 02:52:59;;;;;;;11.75;2.55;;;24.70;38.20;;;;;;5009318;28;20074;-48
2024/03/29 02:55:26;;;;;;;42.88;4.63;;;24.70;39.40;;;;;;5005459;28;20080;-45
2024/03/29 02:57:52;;;;;;;16.80;3.00;;;24.60;40.50;;;;;;5004406;28;20070;-47
2024/03/29 03:00:19;;;;;;;16.77;2.88;;;24.60;41.20;;;;;;5006213;28;20107;-49
2024/03/29 03:02:45;;;;;;;19.83;3.20;;;24.50;41.90;;;;;;5008004;28;20136;-45
2024/03/29 03:05:12;;;;;;;15.13;3.40;;;24.40;42.30;;;;;;5006537;28;20079;-45
2024/03/29 03:13:08;;;;;;;15.02;2.78;;;24.30;43.60;;;;;;5007049;28;20073;-46
2024/03/29 03:15:34;;;;;;;14.77;3.17;;;24.20;43.90;;;;;;5007501;28;20431;-45
2024/03/29 03:18:01;;;;;;;9.18;2.80;;;24.10;44.10;;;;;;5006364;28;20524;-47
2024/03/29 03:20:31;;;;;;;10.30;2.65;;;24.00;44.80;;;;;;5004986;28;20105;-44
2024/03/29 03:22:58;;;;;;;8.00;2.97;;;23.90;45.80;;;;;;5007827;28;20116;-45
2024/03/29 03:25:27;;;;;;;12.63;3.10;;;23.70;46.60;;;;;;5004127;28;20074;-46
2024/03/29 03:27:54;;;;;;;13.77;2.85;;;23.60;48.20;;;;;;5006893;28;20070;-43
2024/03/29 03:30:22;;;;;;;9.57;3.22;;;23.50;50.20;;;;;;5007016;28;20085;-47
2024/03/29 03:32:48;;;;;;;9.27;3.50;;;23.40;51.80;;;;;;5008107;28;20532;-46
2024/03/29 03:35:15;;;;;;;16.45;3.47;;;23.20;53.80;;;;;;5006857;28;20114;-46
2024/03/29 03:37:41;;;;;;;13.68;3.42;;;23.10;54.30;;;;;;4988683;28;20083;-46
2024/03/29 03:40:08;;;;;;;13.18;3.63;;;23.00;54.90;;;;;;5004989;28;20129;-46
2024/03/29 03:42:35;;;;;;;22.70;4.95;;;22.90;55.40;;;;;;5006179;28;20156;-45
2024/03/29 03:45:02;;;;;;;18.92;3.65;;;22.90;55.90;;;;;;5005241;28;20101;-47
2024/03/29 03:47:30;;;;;;;10.02;3.30;;;22.80;56.00;;;;;;5003692;28;20066;-52
2024/03/29 03:49:56;;;;;;;12.07;3.45;;;22.70;56.50;;;;;;5005400;28;20075;-46
2024/03/29 03:52:23;;;;;;;11.18;3.95;;;22.50;56.90;;;;;;5007885;28;20074;-47
2024/03/29 03:54:49;;;;;;;12.15;3.22;;;22.40;57.80;;;;;;5004893;28;20082;-45
2024/03/29 03:57:16;;;;;;;19.15;5.57;;;22.30;58.30;;;;;;5007062;28;20192;-47
2024/03/29 03:59:42;;;;;;;16.23;3.08;;;22.20;58.70;;;;;;5003688;28;20113;-46
2024/03/29 04:02:09;;;;;;;21.50;4.13;;;22.10;58.80;;;;;;5006530;28;20073;-48
2024/03/29 04:04:36;;;;;;;15.52;3.75;;;22.00;59.20;;;;;;5005259;28;20082;-53
2024/03/29 04:07:02;;;;;;;15.95;3.63;;;21.90;59.60;;;;;;5005479;28;20607;-48
2024/03/29 04:09:29;;;;;;;15.15;3.35;;;21.80;59.80;;;;;;5006574;28;20161;-46
2024/03/29 04:11:55;;;;;;;14.30;3.58;;;21.80;60.00;;;;;;5006769;28;20189;-45
2024/03/29 04:14:22;;;;;;;14.65;3.55;;;21.70;60.20;;;;;;5007143;28;20070;-46
2024/03/29 04:16:48;;;;;;;25.85;3.90;;;21.70;60.30;;;;;;5004768;28;20628;-46
2024/03/29 04:19:16;;;;;;;17.67;3.70;;;21.70;60.40;;;;;;5005834;28;20077;-45
2024/03/29 04:21:42;;;;;;;13.98;3.25;;;21.70;60.80;;;;;;5004516;28;20602;-47
2024/03/29 04:24:09;;;;;;;15.48;3.63;;;21.60;61.10;;;;;;5005141;28;20149;-48
2024/03/29 04:26:38;;;;;;;18.58;4.00;;;21.60;61.20;;;;;;4982176;28;21373;-46
2024/03/29 04:29:05;;;;;;;14.45;3.53;;;21.50;61.40;;;;;;5008488;28;20156;-45
2024/03/29 04:31:32;;;;;;;15.55;4.00;;;21.50;61.50;;;;;;5007697;28;20078;-53
2024/03/29 04:33:58;;;;;;;17.77;4.30;;;21.50;61.20;;;;;;5007727;28;20153;-46
2024/03/29 04:36:25;;;;;;;17.85;4.18;;;21.50;60.90;;;;;;5007520;28;20119;-45
2024/03/29 04:38:51;;;;;;;17.77;3.88;;;21.60;60.30;;;;;;5006510;28;20125;-48
2024/03/29 04:41:18;;;;;;;9.60;4.20;;;21.70;59.80;;;;;;4990179;28;20144;-45
2024/03/29 04:43:45;;;;;;;24.52;4.43;;;21.70;59.40;;;;;;4990762;28;20132;-45
2024/03/29 04:46:13;;;;;;;16.35;3.45;;;21.80;58.70;;;;;;4989876;28;20120;-49
2024/03/29 04:48:41;;;;;;;14.20;2.90;;;21.80;58.70;;;;;;5008245;28;20077;-48
2024/03/29 04:51:08;;;;;;;19.98;3.55;;;21.80;59.00;;;;;;5005970;28;20213;-50
2024/03/29 04:53:41;;;;;;;19.73;3.38;;;21.80;57.90;;;;;;5007929;28;20124;-47
2024/03/29 04:56:08;;;;;;;12.27;2.80;;;21.80;57.70;;;;;;5007503;28;20169;-48
2024/03/29 04:58:34;;;;;;;10.60;2.72;;;21.80;58.50;;;;;;4990360;28;20401;-46
2024/03/29 05:01:00;;;;;;;12.02;2.50;;;21.70;58.40;;;;;;4989648;28;20459;-51
2024/03/29 05:03:27;;;;;;;14.45;2.67;;;21.70;58.60;;;;;;5007039;28;20149;-49
2024/03/29 05:05:54;;;;;;;17.40;3.47;;;21.60;58.50;;;;;;4989955;28;20512;-47
2024/03/29 05:08:22;;;;;;;18.42;2.97;;;21.60;58.30;;;;;;5008164;28;20074;-47
2024/03/29 05:10:52;;;;;;;18.02;2.90;;;21.60;57.80;;;;;;5005839;28;20089;-51
2024/03/29 05:13:22;;;;;;;8.07;2.70;;;21.60;57.90;;;;;;5008483;28;20070;-48
2024/03/29 05:15:48;;;;;;;7.93;2.72;;;21.50;58.00;;;;;;5007197;28;20178;-50
2024/03/29 05:18:15;;;;;;;17.75;3.20;;;21.50;58.00;;;;;;5007245;28;20176;-48
2024/03/29 05:20:46;;;;;;;20.63;3.38;;;21.40;58.20;;;;;;5004796;28;20106;-47
2024/03/29 05:23:14;;;;;;;17.02;2.88;;;21.30;58.00;;;;;;5007052;28;20071;-46
2024/03/29 05:25:41;;;;;;;12.60;2.53;;;21.20;57.60;;;;;;5007925;28;20100;-48
2024/03/29 05:28:09;;;;;;;11.55;2.50;;;21.20;57.60;;;;;;5006521;28;20086;-45
2024/03/29 05:30:36;;;;;;;12.57;3.15;;;21.20;57.50;;;;;;5006139;28;20164;-47
2024/03/29 05:33:06;;;;;;;10.10;2.78;;;21.10;57.40;;;;;;5004704;28;20090;-45
2024/03/29 05:35:34;;;;;;;11.48;2.95;;;21.10;57.40;;;;;;5007400;28;20081;-48
2024/03/29 05:38:01;;;;;;;13.32;3.15;;;20.90;57.20;;;;;;4988549;28;20074;-47
2024/03/29 05:40:28;;;;;;;7.80;2.72;;;20.80;56.80;;;;;;4967473;28;20099;-47
2024/03/29 05:42:55;;;;;;;15.40;3.15;;;20.60;56.80;;;;;;4967342;28;20075;-49
2024/03/29 05:45:26;;;;;;;10.38;2.50;;;20.60;56.80;;;;;;4968104;28;20083;-50
2024/03/29 05:47:56;;;;;;;9.75;2.20;;;20.60;56.70;;;;;;4968443;28;20179;-46
2024/03/29 05:50:24;;;;;;;11.15;2.60;;;20.60;56.70;;;;;;4965565;28;20075;-48
2024/03/29 05:52:52;;;;;;;17.70;4.88;;;20.50;56.70;;;;;;4966754;28;20134;-47
2024/03/29 05:55:19;;;;;;;17.98;2.80;;;20.50;56.80;;;;;;4970921;28;20130;-46
2024/03/29 05:57:45;;;;;;;15.00;2.95;;;20.50;56.60;;;;;;4972399;28;20071;-48
2024/03/29 06:00:14;;;;;;;13.82;2.80;;;20.50;56.70;;;;;;4969753;28;21019;-46
2024/03/29 06:02:42;;;;;;;11.60;2.88;;;20.50;56.40;;;;;;4970859;28;20087;-52
2024/03/29 06:05:09;;;;;;;12.23;2.30;;;20.50;56.40;;;;;;4971639;28;20071;-50
2024/03/29 06:07:36;;;;;;;8.20;2.33;;;20.50;56.30;;;;;;4971041;28;20551;-48
2024/03/29 06:10:05;;;;;;;9.30;2.50;;;20.40;56.20;;;;;;4970690;28;20075;-48
2024/03/29 06:12:33;;;;;;;8.45;2.38;;;20.40;56.10;;;;;;4968752;28;20782;-47
2024/03/29 06:17:45;;;;;;;10.35;2.38;;;20.40;56.00;;;;;;4971869;28;20082;-49
2024/03/29 06:20:12;;;;;;;15.15;3.40;;;20.40;56.20;;;;;;4969366;28;20115;-53
2024/03/29 06:22:39;;;;;;;12.13;3.70;;;20.30;56.30;;;;;;4970395;28;20088;-48
2024/03/29 06:25:06;;;;;;;18.85;4.95;;;20.30;56.30;;;;;;4968634;28;20075;-44
2024/03/29 06:27:33;;;;;;;17.50;4.10;;;20.30;56.40;;;;;;4970671;28;20071;-46
2024/03/29 06:30:00;;;;;;;20.55;2.92;;;20.20;56.50;;;;;;4969766;28;20099;-47
2024/03/29 06:32:27;;;;;;;24.50;13.70;;;20.20;56.60;;;;;;4970476;28;20723;-47
2024/03/29 06:34:53;;;;;;;21.30;16.20;;;20.20;56.70;;;;;;4970475;28;20087;-47
2024/03/29 06:37:25;;;;;;;25.98;20.13;;;20.20;56.80;;;;;;4969830;28;20075;-46
2024/03/29 06:39:54;;;;;;;25.83;21.30;;;20.10;57.00;;;;;;4997793;28;20106;-45
2024/03/29 06:42:20;;;;;;;19.02;8.38;;;20.10;57.10;;;;;;5009948;28;20075;-45
2024/03/29 06:44:47;;;;;;;17.60;9.32;;;20.10;57.40;;;;;;5007434;28;20145;-49
2024/03/29 06:47:13;;;;;;;11.77;2.10;;;20.10;57.50;;;;;;5009531;28;20067;-46
2024/03/29 06:49:40;;;;;;;13.45;8.77;;;20.00;57.70;;;;;;5008165;28;20562;-46
2024/03/29 06:52:07;;;;;;;8.15;2.30;;;20.00;58.00;;;;;;5008600;28;20081;-46
2024/03/29 06:54:33;;;;;;;11.98;2.17;;;19.90;58.30;;;;;;5008728;28;20521;-51
2024/03/29 06:57:00;;;;;;;11.07;2.65;;;19.90;58.50;;;;;;4989706;28;20087;-51
2024/03/29 06:59:27;;;;;;;10.85;1.95;;;19.90;58.60;;;;;;4992887;28;20070;-49
2024/03/29 07:01:54;;;;;;;12.25;2.15;;;19.90;58.70;;;;;;5007424;28;20507;-48
2024/03/29 07:04:24;;;;;;;9.52;1.48;;;19.80;58.70;;;;;;5007106;28;20097;-49
2024/03/29 07:06:51;;;;;;;15.18;1.42;;;19.80;58.70;;;;;;4988851;28;20074;-48
2024/03/29 07:09:20;;;;;;;10.32;1.90;;;20.00;58.70;;;;;;5008772;28;20074;-50
2024/03/29 07:11:48;;;;;;;22.73;1.90;;;20.00;58.40;;;;;;5007917;28;20078;-48
2024/03/29 07:14:19;;;;;;;16.33;1.48;;;20.10;58.20;;;;;;4992423;28;20097;-47
2024/03/29 07:16:46;;;;;;;5.35;1.30;;;20.20;58.10;;;;;;5009391;28;20546;-50
2024/03/29 07:19:14;;;;;;;9.05;1.38;;;20.20;58.10;;;;;;5008790;28;20117;-48
2024/03/29 07:21:40;;;;;;;4.35;1.30;;;20.20;58.30;;;;;;5009876;28;20504;-45
2024/03/29 07:24:07;;;;;;;8.48;1.92;;;20.10;58.50;;;;;;4988343;28;20136;-55
2024/03/29 07:26:34;;;;;;;6.03;1.13;;;20.10;58.70;;;;;;5009359;28;20124;-47
2024/03/29 07:29:01;;;;;;;10.00;1.00;;;20.00;58.70;;;;;;5007406;28;20080;-48
2024/03/29 07:31:27;;;;;;;14.30;1.55;;;20.00;58.70;;;;;;5006542;28;20070;-55
2024/03/29 07:33:54;;;;;;;13.07;1.15;;;20.10;58.60;;;;;;5006079;28;20524;-48
2024/03/29 07:36:23;;;;;;;6.70;1.20;;;20.00;58.80;;;;;;5007020;28;20154;-49
2024/03/29 07:38:50;;;;;;;7.07;1.15;;;20.00;58.90;;;;;;5007886;28;20142;-47
2024/03/29 07:41:16;;;;;;;5.78;1.60;;;20.00;58.90;;;;;;5009446;28;20094;-50
2024/03/29 07:43:56;;;;;;;4.20;1.02;;;19.90;58.90;;;;;;5009292;28;20079;-44
2024/03/29 07:46:23;;;;;;;5.00;1.05;;;19.90;59.00;;;;;;4990710;28;20582;-46
2024/03/29 07:48:50;;;;;;;4.93;1.05;;;19.80;59.00;;;;;;5007801;28;20070;-49
2024/03/29 07:51:17;;;;;;;5.03;1.10;;;19.90;59.00;;;;;;5008478;28;20453;-54
2024/03/29 07:53:43;;;;;;;4.70;1.30;;;19.80;59.10;;;;;;5005872;28;20085;-45
2024/03/29 07:56:10;;;;;;;5.82;1.30;;;19.80;59.30;;;;;;5008758;28;20086;-52
2024/03/29 07:58:36;;;;;;;2.47;1.00;;;19.70;59.10;;;;;;5008716;28;20730;-46
2024/03/29 08:01:03;;;;;;;7.60;1.00;;;19.80;59.10;;;;;;5007691;28;20113;-47
2024/03/29 08:03:32;;;;;;;2.50;1.00;;;19.80;58.90;;;;;;5007135;28;20079;-48
2024/03/29 08:06:04;;;;;;;5.22;1.20;;;19.70;59.30;;;;;;5007936;28;20074;-46
2024/03/29 08:08:33;;;;;;;4.03;1.40;;;19.60;59.70;;;;;;5008861;28;20153;-46
2024/03/29 08:11:00;;;;;;;6.03;1.00;;;19.50;59.60;;;;;;5007768;28;20074;-49
2024/03/29 08:13:27;;;;;;;2.85;1.15;;;19.50;59.30;;;;;;5008387;28;20081;-53
2024/03/29 08:16:01;;;;;;;2.72;0.93;;;19.50;58.80;;;;;;5006883;28;20141;-50
2024/03/29 08:18:28;;;;;;;2.88;0.80;;;19.50;58.70;;;;;;5008169;28;20074;-51
2024/03/29 08:20:55;;;;;;;1.27;0.90;;;19.50;58.70;;;;;;4990345;28;20121;-47
2024/03/29 08:23:22;;;;;;;4.57;0.95;;;19.40;59.10;;;;;;5006210;28;20129;-47
2024/03/29 08:25:49;;;;;;;1.95;0.90;;;19.40;59.30;;;;;;4990688;28;20094;-48
2024/03/29 08:28:16;;;;;;;2.03;0.70;;;19.40;59.10;;;;;;5006963;28;20075;-48
2024/03/29 08:30:42;;;;;;;2.30;0.80;;;19.30;59.00;;;;;;5005462;28;20169;-52
2024/03/29 08:33:09;;;;;;;5.57;1.48;;;19.30;58.60;;;;;;5005135;28;20083;-47
2024/03/29 08:35:36;;;;;;;2.90;0.80;;;19.40;57.30;;;;;;5007732;28;20067;-48
2024/03/29 08:38:02;;;;;;;1.27;0.82;;;19.40;56.60;;;;;;5008115;28;20074;-45
2024/03/29 08:40:31;;;;;;;3.28;0.82;;;19.50;55.80;;;;;;5007199;28;20197;-46
2024/03/29 08:42:58;;;;;;;14.35;1.17;;;19.60;55.80;;;;;;5008227;28;20501;-47
2024/03/29 08:45:24;;;;;;;3.50;0.90;;;19.60;55.20;;;;;;5007121;28;20070;-51
2024/03/29 08:47:51;;;;;;;2.70;0.60;;;19.70;54.30;;;;;;5007762;28;20170;-50
2024/03/29 08:50:17;;;;;;;4.22;0.90;;;19.70;54.20;;;;;;5007689;28;20399;-48
2024/03/29 08:52:44;;;;;;;4.40;0.90;;;19.70;54.10;;;;;;4989606;28;20070;-47
2024/03/29 08:55:11;;;;;;;1.80;0.85;;;19.60;54.20;;;;;;4990893;28;20082;-48
2024/03/29 08:57:37;;;;;;;2.10;0.80;;;19.60;53.90;;;;;;5006045;28;20070;-50
2024/03/29 09:00:04;;;;;;;8.15;1.30;;;19.70;52.80;;;;;;5006977;28;20148;-46
2024/03/29 09:02:31;;;;;;;4.20;1.55;;;19.80;52.40;;;;;;5007116;28;20562;-48
2024/03/29 09:04:58;;;;;;;4.38;0.98;;;19.80;52.30;;;;;;5007757;28;20412;-47
2024/03/29 09:07:24;;;;;;;2.40;0.88;;;19.90;51.60;;;;;;5006198;28;20071;-46
2024/03/29 09:09:51;;;;;;;5.40;1.02;;;19.90;51.80;;;;;;5006631;28;20169;-54
2024/03/29 09:12:18;;;;;;;5.57;0.77;;;19.90;51.50;;;;;;5006894;28;20542;-53
2024/03/29 09:14:45;;;;;;;7.00;0.80;;;19.90;51.10;;;;;;5007675;28;20594;-50
2024/03/29 09:17:12;;;;;;;3.45;0.95;;;19.90;51.10;;;;;;5006246;28;20077;-51
2024/03/29 09:19:39;;;;;;;5.47;0.98;;;20.00;50.70;;;;;;5007290;28;20612;-46
2024/03/29 09:22:05;;;;;;;4.93;1.00;;;20.00;50.80;;;;;;5006852;28;20101;-51
2024/03/29 09:24:34;;;;;;;1.35;0.80;;;19.90;50.70;;;;;;5008186;28;20078;-54
2024/03/29 09:27:01;;;;;;;2.17;1.00;;;19.80;50.90;;;;;;5007494;28;20169;-54
2024/03/29 09:29:27;;;;;;;5.10;1.10;;;19.80;51.00;;;;;;5010489;28;20101;-49
2024/03/29 09:31:54;;;;;;;3.58;0.80;;;19.80;50.80;;;;;;5009558;28;20162;-54
2024/03/29 09:34:20;;;;;;;2.42;0.80;;;19.90;51.00;;;;;;5008657;28;20066;-54
2024/03/29 09:36:47;;;;;;;3.80;0.80;;;20.00;51.20;;;;;;5010807;28;20524;-54
2024/03/29 09:39:14;;;;;;;4.80;1.08;;;20.10;50.90;;;;;;5010925;28;20126;-54
2024/03/29 09:41:44;;;;;;;2.90;1.00;;;20.00;50.60;;;;;;5010201;28;20154;-54
2024/03/29 09:44:11;;;;;;;7.32;1.27;;;19.80;50.80;;;;;;5010806;28;20066;-57
2024/03/29 09:46:41;;;;;;;2.45;1.00;;;19.90;51.00;;;;;;5009609;28;20132;-54
2024/03/29 09:49:08;;;;;;;4.40;0.93;;;19.90;51.40;;;;;;5011027;28;20071;-53
2024/03/29 09:51:35;;;;;;;4.35;1.25;;;19.90;51.30;;;;;;5010364;28;20080;-56
2024/03/29 09:54:07;;;;;;;3.38;0.73;;;19.90;51.60;;;;;;5011451;28;20074;-55
2024/03/29 09:56:34;;;;;;;2.03;0.70;;;19.90;51.80;;;;;;4991746;28;20081;-51
2024/03/29 09:59:04;;;;;;;3.75;1.00;;;19.80;51.70;;;;;;5010806;28;20954;-56
2024/03/29 10:01:32;;;;;;;6.55;1.00;;;19.60;50.80;;;;;;5010876;28;20184;-54
2024/03/29 10:04:00;;;;;;;1.58;0.82;;;19.70;50.80;;;;;;5011126;28;20109;-54
2024/03/29 10:06:30;;;;;;;2.08;1.10;;;19.70;50.80;;;;;;5010088;28;20067;-56
2024/03/29 10:08:58;;;;;;;3.25;0.98;;;19.60;51.30;;;;;;5009513;28;20087;-53
2024/03/29 10:11:24;;;;;;;3.08;1.10;;;19.60;50.80;;;;;;5009353;28;20074;-55
2024/03/29 10:13:51;;;;;;;3.20;0.98;;;19.60;50.40;;;;;;5011590;28;20168;-54
2024/03/29 10:16:24;;;;;;;2.50;0.93;;;19.60;50.60;;;;;;5009749;28;20094;-55
2024/03/29 10:18:50;;;;;;;2.78;0.90;;;19.40;50.60;;;;;;5010140;28;20540;-55
2024/03/29 10:21:17;;;;;;;7.57;1.00;;;19.30;50.80;;;;;;5009043;28;20572;-55
2024/03/29 10:23:45;;;;;;;8.95;1.13;;;19.30;51.20;;;;;;4990139;28;20397;-53
2024/03/29 10:26:12;;;;;;;7.70;1.08;;;19.30;51.30;;;;;;5008419;28;20063;-57
2024/03/29 10:28:39;;;;;;;6.40;0.90;;;19.30;51.30;;;;;;5011431;28;20127;-54
2024/03/29 10:31:06;;;;;;;4.50;1.00;;;19.30;51.50;;;;;;5009013;28;20120;-55
2024/03/29 10:33:34;;;;;;;9.70;1.85;;;19.00;51.80;;;;;;5007128;28;20157;-55
2024/03/29 10:36:04;;;;;;;3.38;1.20;;;18.90;52.40;;;;;;5009987;28;20232;-53
2024/03/29 10:38:31;;;;;;;5.28;1.17;;;18.80;52.40;;;;;;5007103;28;20086;-57
2024/03/29 10:40:58;;;;;;;8.95;1.50;;;18.80;52.20;;;;;;4992155;28;20482;-55
2024/03/29 10:43:25;;;;;;;8.02;1.27;;;18.70;52.30;;;;;;5010489;28;20423;-56
2024/03/29 10:45:54;;;;;;;6.43;1.40;;;18.70;52.20;;;;;;5009991;28;20070;-54
2024/03/29 10:48:22;;;;;;;6.88;1.30;;;18.70;52.40;;;;;;5009614;28;20205;-57
2024/03/29 10:50:51;;;;;;;1.58;0.95;;;18.70;52.20;;;;;;5009624;28;20098;-55
2024/03/29 10:53:18;;;;;;;2.60;1.00;;;18.70;52.10;;;;;;5010157;28;20169;-55
2024/03/29 10:55:45;;;;;;;9.00;1.10;;;18.70;51.80;;;;;;5008274;28;20077;-55
2024/03/29 10:58:14;;;;;;;3.17;1.00;;;18.70;51.90;;;;;;5010041;28;20102;-55
2024/03/29 11:00:50;;;;;;;3.75;1.35;;;18.60;52.00;;;;;;5007822;28;20125;-57
2024/03/29 11:03:19;;;;;;;3.65;1.38;;;18.60;52.30;;;;;;5008672;28;20066;-56
2024/03/29 11:05:52;;;;;;;5.88;1.48;;;18.50;52.40;;;;;;5009714;28;20108;-56
2024/03/29 11:08:28;;;;;;;4.32;1.17;;;18.40;52.70;;;;;;5006785;28;20079;-57
2024/03/29 11:11:00;;;;;;;5.47;1.25;;;18.30;52.90;;;;;;5009929;28;20938;-58
2024/03/29 11:13:53;;;;;;;2.50;0.95;;;18.30;52.80;;;;;;5007717;28;20079;-59
2024/03/29 11:16:20;;;;;;;32.53;16.85;;;18.20;52.90;;;;;;5009054;28;20548;-57
2024/03/29 11:18:48;;;;;;;33.78;15.98;;;18.10;53.10;;;;;;4991728;28;20500;-55
2024/03/29 11:21:20;;;;;;;3.22;1.30;;;18.10;53.10;;;;;;5009034;28;20099;-57
2024/03/29 11:23:51;;;;;;;3.80;1.35;;;18.00;53.00;;;;;;5006019;28;20121;-57
2024/03/29 11:26:19;;;;;;;4.60;1.15;;;18.10;53.10;;;;;;4992311;28;20109;-55
2024/03/29 11:28:52;;;;;;;4.95;1.45;;;18.20;53.10;;;;;;5008461;28;20089;-58
2024/03/29 11:31:24;;;;;;;2.95;1.17;;;18.20;52.90;;;;;;5007871;28;20164;-57
2024/03/29 11:33:52;;;;;;;4.28;1.00;;;18.10;53.00;;;;;;5008388;28;20102;-59
2024/03/29 11:36:24;;;;;;;3.83;1.25;;;18.20;52.80;;;;;;5008515;28;20067;-58
2024/03/29 11:38:52;;;;;;;2.40;1.10;;;18.20;52.70;;;;;;5009467;28;20197;-58
2024/03/29 11:41:24;;;;;;;6.78;1.60;;;18.20;52.70;;;;;;5009310;28;20474;-58
2024/03/29 11:43:51;;;;;;;3.95;1.17;;;18.10;52.80;;;;;;5008323;28;20078;-58
2024/03/29 11:46:18;;;;;;;6.28;1.60;;;18.10;52.90;;;;;;5006940;28;20070;-58
2024/03/29 11:48:48;;;;;;;5.45;1.55;;;18.10;53.10;;;;;;5006585;28;20070;-57
2024/03/29 11:51:15;;;;;;;4.20;1.33;;;18.00;53.30;;;;;;5008972;28;20138;-58
2024/03/29 11:53:42;;;;;;;6.20;2.40;;;17.90;53.30;;;;;;5008854;28;20098;-58
2024/03/29 11:56:11;;;;;;;8.75;1.92;;;17.90;53.60;;;;;;5009155;28;20078;-57
2024/03/29 11:58:38;;;;;;;5.53;1.75;;;17.80;53.70;;;;;;5007476;28;20063;-58
2024/03/29 12:01:05;;;;;;;7.47;3.08;;;17.80;53.90;;;;;;5008759;28;20104;-58
2024/03/29 12:03:32;;;;;;;6.95;2.20;;;17.70;54.10;;;;;;5009145;28;20661;-56
2024/03/29 12:06:02;;;;;;;9.48;2.00;;;17.80;54.10;;;;;;5008471;28;20101;-58
2024/03/29 12:08:38;;;;;;;7.60;2.00;;;17.70;54.20;;;;;;5007323;28;20093;-56
2024/03/29 12:11:04;;;;;;;3.92;1.80;;;17.70;54.40;;;;;;5008569;28;20140;-58
2024/03/29 12:13:31;;;;;;;6.50;1.73;;;17.70;54.50;;;;;;5008711;28;20101;-57
2024/03/29 12:15:59;;;;;;;4.90;1.70;;;17.60;54.50;;;;;;5008347;28;20165;-58
2024/03/29 12:18:27;;;;;;;3.35;1.45;;;17.60;54.50;;;;;;5008706;28;20066;-58
2024/03/29 12:20:55;;;;;;;4.40;1.20;;;17.60;54.20;;;;;;5008661;28;20094;-60
2024/03/29 12:23:22;;;;;;;3.97;1.85;;;17.60;54.30;;;;;;5007224;28;20076;-59
2024/03/29 12:25:51;;;;;;;3.67;1.42;;;17.60;54.80;;;;;;4990113;28;20074;-56
2024/03/29 12:28:18;;;;;;;3.75;1.70;;;17.50;55.20;;;;;;5008511;28;20105;-57
2024/03/29 12:30:46;;;;;;;6.28;1.63;;;17.40;55.10;;;;;;5008316;28;20098;-55
2024/03/29 12:33:21;;;;;;;7.78;2.28;;;17.30;55.40;;;;;;5008261;28;20153;-57
2024/03/29 12:35:49;;;;;;;7.20;2.55;;;17.20;56.20;;;;;;5007823;28;20082;-58
2024/03/29 12:38:17;;;;;;;5.15;2.75;;;17.20;55.30;;;;;;5008820;28;20132;-58
2024/03/29 12:40:47;;;;;;;12.32;2.70;;;17.00;55.80;;;;;;4986742;28;20110;-58
2024/03/29 12:43:17;;;;;;;7.57;2.35;;;16.80;56.00;;;;;;4988145;28;20071;-57
2024/03/29 12:45:43;;;;;;;7.13;2.50;;;16.80;56.10;;;;;;4988187;28;20513;-57
2024/03/29 12:48:20;;;;;;;7.57;2.50;;;16.80;56.20;;;;;;4989516;28;20070;-58
2024/03/29 12:50:47;;;;;;;6.93;2.28;;;16.80;56.70;;;;;;4987475;28;20075;-57